Time;durP1;ratioP1;P1;durP2;ratioP2;P2;SDS_P1;SDS_P2;PMS_P1;PMS_P2;Temp;Humidity;BMP_temperature;BMP_pressure;BME280_temperature;BME280_humidity;BME280_pressure;Samples;Min_cycle;Max_cycle;Signal;HPM_P1;HPM_P2
2020/12/08 00:00:37;;;;;;;22.47;9.57;;;;;;;-6.53;62.85;100564.67;319832;111;2145027;-73
2020/12/08 00:01:44;;;;;;;17.10;8.17;;;;;;;-6.51;63.02;100568.09;354075;113;1961898;-73
2020/12/08 00:02:51;;;;;;;19.38;8.87;;;;;;;-6.49;62.91;100568.00;335976;112;1963076;-72
2020/12/08 00:03:56;;;;;;;19.01;9.83;;;;;;;-6.50;62.88;100564.52;359585;112;1961976;-73
2020/12/08 00:05:04;;;;;;;19.11;8.56;;;;;;;-6.56;62.90;100553.45;359639;111;1962865;-73
2020/12/08 00:06:15;;;;;;;20.99;9.51;;;;;;;-6.57;63.04;100563.11;354131;107;1961934;-73
2020/12/08 00:07:21;;;;;;;19.84;8.19;;;;;;;-6.57;62.99;100562.27;347527;115;1962047;-74
2020/12/08 00:08:26;;;;;;;15.88;8.31;;;;;;;-6.60;63.13;100560.64;323707;115;2196063;-74
2020/12/08 00:09:32;;;;;;;18.77;9.20;;;;;;;-6.59;63.13;100559.70;346561;115;1962986;-73
2020/12/08 00:10:40;;;;;;;18.93;8.44;;;;;;;-6.58;63.15;100556.17;322023;106;2864829;-73
2020/12/08 00:11:48;;;;;;;15.16;7.02;;;;;;;-6.59;63.04;100562.33;343412;110;1961939;-72
2020/12/08 00:12:53;;;;;;;18.01;8.74;;;;;;;-6.58;63.19;100548.28;327731;108;2142594;-72
2020/12/08 00:14:00;;;;;;;18.96;9.69;;;;;;;-6.58;63.01;100545.66;368353;108;1961939;-73
2020/12/08 00:15:05;;;;;;;21.17;9.44;;;;;;;-6.57;63.02;100542.09;367454;108;1961945;-72
2020/12/08 00:16:13;;;;;;;18.03;7.96;;;;;;;-6.59;62.90;100553.59;325639;109;2041190;-73
2020/12/08 00:17:19;;;;;;;20.53;9.23;;;;;;;-6.59;63.03;100550.97;354566;112;1963969;-73
2020/12/08 00:18:24;;;;;;;20.60;9.25;;;;;;;-6.62;62.95;100559.86;332483;112;2437029;-73
2020/12/08 00:19:29;;;;;;;18.19;9.33;;;;;;;-6.62;63.07;100557.23;328528;115;1962032;-73
2020/12/08 00:20:36;;;;;;;19.47;8.82;;;;;;;-6.62;63.18;100545.87;352161;112;1962150;-73
2020/12/08 00:21:44;;;;;;;15.28;7.44;;;;;;;-6.63;63.10;100545.03;313409;115;2127158;-73
2020/12/08 00:22:50;;;;;;;16.38;8.43;;;;;;;-6.66;63.20;100542.55;351192;113;1961870;-73
2020/12/08 00:23:55;;;;;;;16.62;8.18;;;;;;;-6.66;63.23;100542.55;330147;113;2448998;-73
2020/12/08 00:25:02;;;;;;;17.94;7.92;;;;;;;-6.67;63.06;100543.46;337877;111;1961911;-72
2020/12/08 00:26:12;;;;;;;17.27;7.94;;;;;;;-6.68;63.08;100536.52;314230;113;2081119;-72
2020/12/08 00:27:18;;;;;;;17.60;7.46;;;;;;;-6.69;63.10;100540.92;330686;115;2861028;-73
2020/12/08 00:28:24;;;;;;;20.28;9.02;;;;;;;-6.71;63.30;100542.77;344772;114;1962046;-73
2020/12/08 00:29:29;;;;;;;17.39;8.75;;;;;;;-6.72;63.40;100550.71;359562;111;1962017;-73
2020/12/08 00:30:36;;;;;;;17.32;8.78;;;;;;;-6.68;63.40;100549.66;322890;110;2741078;-73
2020/12/08 00:31:41;;;;;;;17.37;8.13;;;;;;;-6.69;63.37;100545.34;338400;112;1962133;-73
2020/12/08 00:32:46;;;;;;;16.99;7.34;;;;;;;-6.67;63.23;100552.22;357355;112;1961931;-73
2020/12/08 00:33:53;;;;;;;17.31;7.44;;;;;;;-6.66;63.17;100548.66;358703;110;1960922;-73
2020/12/08 00:34:59;;;;;;;17.67;8.07;;;;;;;-6.66;63.27;100543.40;341247;110;1962016;-73
2020/12/08 00:36:04;;;;;;;17.88;8.44;;;;;;;-6.62;63.20;100545.87;359705;110;1962035;-73
2020/12/08 00:37:10;;;;;;;15.13;7.27;;;;;;;-6.61;63.19;100545.81;359286;110;1962089;-73
2020/12/08 00:38:15;;;;;;;19.72;8.38;;;;;;;-6.59;63.11;100546.56;346001;110;2273894;-73
2020/12/08 00:39:20;;;;;;;17.69;7.89;;;;;;;-6.58;62.99;100537.77;341731;110;1961922;-73
2020/12/08 00:40:28;;;;;;;18.15;8.28;;;;;;;-6.61;63.05;100524.78;359459;111;1964891;-73
2020/12/08 00:41:33;;;;;;;15.06;6.83;;;;;;;-6.61;62.93;100531.80;328882;110;2603963;-73
2020/12/08 00:42:44;;;;;;;16.14;8.01;;;;;;;-6.60;62.97;100538.77;341577;112;1962930;-73
2020/12/08 00:43:50;;;;;;;16.62;7.99;;;;;;;-6.61;62.89;100534.42;360691;110;1962007;-72
2020/12/08 00:44:56;;;;;;;17.23;7.98;;;;;;;-6.62;62.85;100540.61;316186;112;2859073;-74
2020/12/08 00:46:02;;;;;;;15.02;7.44;;;;;;;-6.64;62.88;100531.05;360194;110;1961920;-73
2020/12/08 00:47:08;;;;;;;18.95;8.02;;;;;;;-6.65;62.82;100525.84;350687;114;1961997;-73
2020/12/08 00:48:13;;;;;;;15.46;8.29;;;;;;;-6.58;62.64;100534.30;330697;112;2225416;-73
2020/12/08 00:49:19;;;;;;;18.25;8.40;;;;;;;-6.64;62.70;100531.05;357271;112;1961955;-73
2020/12/08 00:50:27;;;;;;;19.19;8.56;;;;;;;-6.67;62.80;100535.58;357302;110;1960681;-73
2020/12/08 00:51:33;;;;;;;15.81;7.74;;;;;;;-6.70;62.86;100536.58;358850;110;1962028;-73
2020/12/08 00:52:40;;;;;;;14.70;6.89;;;;;;;-6.74;63.07;100542.08;360538;110;1961989;-73
2020/12/08 00:53:47;;;;;;;16.57;8.07;;;;;;;-6.73;63.09;100528.00;359869;110;1962942;-72
2020/12/08 00:54:54;;;;;;;16.04;8.32;;;;;;;-6.76;63.15;100530.78;350421;110;2209975;-73
2020/12/08 00:55:59;;;;;;;17.29;8.07;;;;;;;-6.73;63.04;100531.47;344469;112;1963956;-73
2020/12/08 00:57:06;;;;;;;17.71;8.98;;;;;;;-6.72;63.01;100534.95;359102;110;1962034;-72
2020/12/08 00:58:11;;;;;;;19.02;8.15;;;;;;;-6.69;62.94;100532.20;336528;110;2491006;-73
2020/12/08 00:59:17;;;;;;;15.76;8.01;;;;;;;-6.71;63.00;100531.41;357578;110;1962894;-72
2020/12/08 01:00:26;;;;;;;17.99;9.45;;;;;;;-6.69;63.01;100530.41;359488;110;1962001;-73
2020/12/08 01:01:33;;;;;;;17.20;8.26;;;;;;;-6.80;63.37;100527.47;358791;110;1961996;-72
2020/12/08 01:02:39;;;;;;;18.33;9.09;;;;;;;-6.76;63.27;100525.53;347717;112;1962994;-73
2020/12/08 01:03:45;;;;;;;17.19;7.48;;;;;;;-6.75;63.21;100514.93;357642;110;1964943;-73
2020/12/08 01:04:52;;;;;;;17.44;8.24;;;;;;;-6.79;63.28;100505.52;342821;110;2233000;-73
2020/12/08 01:05:57;;;;;;;15.50;7.81;;;;;;;-6.80;63.33;100510.83;358415;110;1962016;-73
2020/12/08 01:07:04;;;;;;;15.37;7.97;;;;;;;-6.78;63.33;100515.08;358576;110;1962006;-72
2020/12/08 01:08:10;;;;;;;16.91;7.58;;;;;;;-6.79;63.38;100513.39;317032;110;2194060;-72
2020/12/08 01:09:16;;;;;;;17.62;8.39;;;;;;;-6.71;63.07;100507.77;358201;110;1963946;-73
2020/12/08 01:10:22;;;;;;;16.31;7.74;;;;;;;-6.75;63.16;100511.45;312852;110;2913991;-72
2020/12/08 01:11:28;;;;;;;26.27;8.87;;;;;;;-6.87;63.25;100486.66;344961;112;1961899;-72
2020/12/08 01:12:33;;;;;;;15.58;8.36;;;;;;;-6.82;63.52;100504.83;358642;111;1963963;-72
2020/12/08 01:13:39;;;;;;;15.40;8.33;;;;;;;-7.07;64.23;100475.31;359004;110;1961947;-72
2020/12/08 01:14:47;;;;;;;15.55;8.05;;;;;;;-6.90;63.82;100502.56;359197;110;1961941;-73
2020/12/08 01:15:54;;;;;;;19.59;9.02;;;;;;;-6.90;63.82;100494.69;338587;110;2211954;-72
2020/12/08 01:17:01;;;;;;;17.15;8.26;;;;;;;-6.93;64.12;100498.31;358208;112;1962111;-72
2020/12/08 01:18:07;;;;;;;15.67;8.43;;;;;;;-6.92;64.05;100494.75;335983;110;2872939;-72
2020/12/08 01:19:13;;;;;;;18.31;7.89;;;;;;;-6.95;64.20;100494.06;350631;110;1961998;-72
2020/12/08 01:20:19;;;;;;;17.22;7.32;;;;;;;-6.93;64.09;100506.19;357427;112;1963103;-72
2020/12/08 01:21:26;;;;;;;16.84;9.06;;;;;;;-6.90;64.05;100506.04;350350;110;1961911;-72
2020/12/08 01:22:32;;;;;;;20.81;9.13;;;;;;;-6.94;64.25;100507.09;359528;110;1961981;-72
2020/12/08 01:23:37;;;;;;;14.66;7.46;;;;;;;-6.94;64.27;100501.00;357963;110;1961935;-73
2020/12/08 01:24:54;;;;;;;17.05;7.47;;;;;;;-6.92;64.23;100502.63;346816;110;2285985;-72
2020/12/08 01:26:00;;;;;;;17.77;9.04;;;;;;;-6.90;64.16;100513.08;366130;108;1962029;-72
2020/12/08 01:27:06;;;;;;;20.61;8.48;;;;;;;-6.91;64.25;100525.33;319598;111;2149836;-72
2020/12/08 01:28:12;;;;;;;15.86;7.26;;;;;;;-6.92;64.18;100518.39;358264;110;1963032;-72
2020/12/08 01:29:18;;;;;;;19.28;8.75;;;;;;;-6.90;64.33;100521.80;356661;112;1962063;-72
2020/12/08 01:30:25;;;;;;;18.54;8.17;;;;;;;-6.93;64.47;100521.95;359011;112;1962020;-71
2020/12/08 01:31:33;;;;;;;17.67;8.64;;;;;;;-6.89;64.36;100514.77;354099;113;1962001;-72
2020/12/08 01:32:40;;;;;;;16.51;8.23;;;;;;;-6.90;64.37;100527.05;353238;112;1961920;-72
2020/12/08 01:33:46;;;;;;;17.62;7.50;;;;;;;-6.93;64.50;100521.07;351870;112;2180958;-72
2020/12/08 01:34:51;;;;;;;14.37;7.11;;;;;;;-6.94;64.51;100524.64;350386;111;1961986;-72
2020/12/08 01:35:57;;;;;;;18.00;8.10;;;;;;;-6.93;64.54;100518.45;359114;110;1961881;-72
2020/12/08 01:37:03;;;;;;;14.34;7.81;;;;;;;-6.91;64.48;100514.83;342887;110;2360019;-72
2020/12/08 01:38:09;;;;;;;15.19;9.04;;;;;;;-6.86;64.29;100517.23;357597;110;1961946;-72
2020/12/08 01:39:16;;;;;;;17.66;8.96;;;;;;;-6.87;64.28;100516.39;359223;112;1963006;-72
2020/12/08 01:40:21;;;;;;;20.20;8.49;;;;;;;-6.93;64.56;100514.07;327089;110;2239957;-73
2020/12/08 01:41:27;;;;;;;16.70;7.48;;;;;;;-6.94;64.54;100508.88;357470;110;1962015;-74
2020/12/08 01:42:33;;;;;;;19.17;8.76;;;;;;;-6.93;64.67;100510.56;358522;110;1961936;-73
2020/12/08 01:43:50;;;;;;;16.68;8.11;;;;;;;-6.92;64.67;100517.54;345107;112;2207063;-72
2020/12/08 01:44:57;;;;;;;20.22;8.79;;;;;;;-6.95;64.79;100509.81;352914;112;1963999;-72
2020/12/08 01:46:05;;;;;;;16.98;9.43;;;;;;;-6.98;64.97;100517.84;333839;112;1961955;-72
2020/12/08 01:47:12;;;;;;;20.38;8.85;;;;;;;-7.01;65.08;100521.47;360162;110;1962077;-72
2020/12/08 01:48:18;;;;;;;18.60;9.18;;;;;;;-7.04;65.42;100515.48;357752;112;1962932;-72
2020/12/08 01:49:24;;;;;;;19.75;9.15;;;;;;;-7.05;65.56;100519.05;360233;110;1962003;-72
2020/12/08 01:50:30;;;;;;;19.97;8.26;;;;;;;-7.03;65.41;100520.69;355668;112;1962017;-73
2020/12/08 01:51:38;;;;;;;20.74;9.51;;;;;;;-7.03;65.54;100514.59;358822;112;1961952;-72
2020/12/08 01:52:43;;;;;;;16.47;8.60;;;;;;;-7.01;65.41;100508.34;335523;115;1962924;-72
2020/12/08 01:53:51;;;;;;;21.73;9.44;;;;;;;-6.97;65.34;100515.13;356707;112;1961985;-72
2020/12/08 01:55:00;;;;;;;18.33;9.39;;;;;;;-6.95;65.19;100522.95;351421;110;1960960;-73
2020/12/08 01:56:15;;;;;;;16.84;8.51;;;;;;;-6.95;65.27;100517.70;330955;112;2644035;31
2020/12/08 01:57:21;;;;;;;21.91;9.57;;;;;;;-6.93;65.21;100518.45;334498;118;1962036;-72
2020/12/08 01:58:27;;;;;;;18.99;9.68;;;;;;;-6.94;65.36;100516.76;339448;116;1961912;-72
2020/12/08 01:59:34;;;;;;;19.71;10.84;;;;;;;-6.94;65.26;100527.27;346056;115;1962021;-72
2020/12/08 02:00:42;;;;;;;18.48;8.78;;;;;;;-6.95;65.19;100543.95;335767;116;2211034;-72
2020/12/08 02:01:48;;;;;;;19.22;8.40;;;;;;;-6.97;65.34;100544.02;344373;116;1961020;-72
2020/12/08 02:02:55;;;;;;;16.12;8.13;;;;;;;-6.97;65.31;100535.30;316131;117;2836976;-73
2020/12/08 02:04:06;;;;;;;18.46;9.17;;;;;;;-6.98;65.39;100539.70;337221;116;1960849;-72
2020/12/08 02:05:12;;;;;;;19.31;9.49;;;;;;;-6.96;65.47;100537.86;345670;115;1961710;-72
2020/12/08 02:06:21;;;;;;;21.03;9.80;;;;;;;-6.95;65.44;100539.55;338432;106;1960728;-71
2020/12/08 02:07:27;;;;;;;17.73;9.73;;;;;;;-6.94;65.54;100537.77;318253;109;2726158;-70
2020/12/08 02:08:34;;;;;;;20.33;8.35;;;;;;;-6.91;65.42;100550.75;353381;112;1962959;-70
2020/12/08 02:09:40;;;;;;;20.07;9.57;;;;;;;-6.92;65.49;100541.17;330289;114;2431034;-70
2020/12/08 02:10:46;;;;;;;18.03;9.64;;;;;;;-6.93;65.64;100545.59;343423;113;1961621;-70
2020/12/08 02:11:52;;;;;;;17.80;9.22;;;;;;;-6.91;65.50;100529.73;344807;115;1961964;-71
2020/12/08 02:12:58;;;;;;;18.49;9.59;;;;;;;-6.88;65.51;100543.59;338129;106;2237980;-70
2020/12/08 02:14:04;;;;;;;25.31;11.04;;;;;;;-6.88;65.59;100540.97;345877;114;1963953;-71
2020/12/08 02:15:10;;;;;;;19.03;10.05;;;;;;;-6.90;65.69;100544.59;346417;116;1962008;-70
2020/12/08 02:16:28;;;;;;;20.59;9.88;;;;;;;-6.90;65.74;100527.05;348230;106;1961913;-71
2020/12/08 02:17:36;;;;;;;21.57;9.42;;;;;;;-6.88;65.67;100527.83;330165;107;2956917;-71
2020/12/08 02:18:41;;;;;;;19.64;10.26;;;;;;;-6.91;65.87;100533.20;366053;109;1962935;-72
2020/12/08 02:19:48;;;;;;;17.92;8.65;;;;;;;-6.89;65.75;100539.25;357877;109;1961975;-71
2020/12/08 02:21:06;;;;;;;17.24;9.20;;;;;;;-6.86;65.73;100530.37;360545;110;1961902;-71
2020/12/08 02:22:13;;;;;;;20.59;9.55;;;;;;;-6.85;65.67;100526.84;340100;116;1961971;-71
2020/12/08 02:23:19;;;;;;;16.64;8.61;;;;;;;-6.86;65.77;100533.84;336216;119;1961996;-71
2020/12/08 02:24:25;;;;;;;20.13;10.32;;;;;;;-6.84;65.67;100527.68;327655;115;2309943;-71
2020/12/08 02:25:30;;;;;;;22.06;11.14;;;;;;;-6.85;65.85;100529.46;349251;111;1962025;-72
2020/12/08 02:26:38;;;;;;;22.52;11.12;;;;;;;-6.87;65.96;100524.27;330561;112;2512956;-73
2020/12/08 02:27:45;;;;;;;21.01;9.64;;;;;;;-6.87;66.01;100526.90;356728;111;1961903;-72
2020/12/08 02:28:53;;;;;;;19.13;10.78;;;;;;;-6.88;66.18;100524.33;332520;111;2520027;-72
2020/12/08 02:29:59;;;;;;;18.36;9.56;;;;;;;-6.88;66.31;100530.46;358182;111;1961959;-73
2020/12/08 02:31:05;;;;;;;18.05;9.40;;;;;;;-6.87;66.18;100526.05;326394;111;1994311;-74
2020/12/08 02:32:11;;;;;;;20.41;10.54;;;;;;;-6.88;66.24;100527.83;356092;111;1961800;-73
2020/12/08 02:33:26;;;;;;;18.44;9.46;;;;;;;-6.86;66.24;100525.12;355035;111;1963917;-73
2020/12/08 02:34:32;;;;;;;17.54;8.36;;;;;;;-6.84;66.41;100520.64;335435;111;2815036;-73
2020/12/08 02:35:38;;;;;;;20.22;9.98;;;;;;;-6.79;66.12;100523.06;357598;108;1961936;-72
2020/12/08 02:36:48;;;;;;;22.17;10.31;;;;;;;-6.78;66.09;100520.34;360173;111;1961764;-72
2020/12/08 02:37:54;;;;;;;20.57;9.64;;;;;;;-6.76;66.11;100520.28;354605;113;1961011;-72
2020/12/08 02:39:00;;;;;;;22.82;10.87;;;;;;;-6.74;66.09;100521.06;349070;113;1960892;-72
2020/12/08 02:40:06;;;;;;;20.02;9.81;;;;;;;-6.72;66.04;100522.69;361061;111;1963846;-72
2020/12/08 02:41:11;;;;;;;18.98;8.99;;;;;;;-6.69;65.91;100522.53;363688;109;1961023;-72
2020/12/08 02:42:18;;;;;;;20.14;10.56;;;;;;;-6.68;65.92;100524.22;324906;111;2149254;-71
2020/12/08 02:43:24;;;;;;;18.53;9.96;;;;;;;-6.68;65.88;100516.34;360240;110;1962049;-72
2020/12/08 02:44:31;;;;;;;17.81;8.88;;;;;;;-6.65;65.70;100523.22;333073;110;1962006;-72
2020/12/08 02:45:36;;;;;;;18.01;9.76;;;;;;;-6.68;65.79;100520.75;356186;111;1961954;-71
2020/12/08 02:46:43;;;;;;;24.79;10.25;;;;;;;-6.68;65.74;100518.13;365603;109;1961925;-72
2020/12/08 02:47:48;;;;;;;23.38;10.23;;;;;;;-6.73;65.82;100513.09;343590;112;2220921;-71
2020/12/08 02:48:54;;;;;;;19.20;9.54;;;;;;;-6.70;65.75;100527.84;364854;109;1961957;-71
2020/12/08 02:50:09;;;;;;;20.88;9.73;;;;;;;-6.75;65.98;100519.34;364172;109;1961875;-72
2020/12/08 02:51:18;;;;;;;22.07;10.89;;;;;;;-6.75;65.94;100521.97;352698;109;2882015;-71
2020/12/08 02:52:28;;;;;;;18.30;9.55;;;;;;;-6.75;66.09;100511.45;341355;112;2385788;-71
2020/12/08 02:53:34;;;;;;;20.04;10.65;;;;;;;-6.74;66.02;100518.43;330829;108;2829009;-72
2020/12/08 02:54:40;;;;;;;20.08;9.94;;;;;;;-6.74;66.09;100519.28;374705;106;1962037;-72
2020/12/08 02:55:47;;;;;;;20.91;10.84;;;;;;;-6.72;66.05;100520.06;371905;105;1961979;-72
2020/12/08 02:56:54;;;;;;;22.36;10.24;;;;;;;-6.71;65.96;100508.61;366451;108;1961928;-72
2020/12/08 02:58:02;;;;;;;20.00;10.29;;;;;;;-6.71;66.03;100511.23;326512;107;2169626;-73
2020/12/08 02:59:07;;;;;;;18.33;9.54;;;;;;;-6.70;65.99;100518.19;369939;107;1961999;-72
2020/12/08 03:00:13;;;;;;;21.67;9.27;;;;;;;-6.71;66.01;100511.23;362070;109;1961976;-72
2020/12/08 03:01:19;;;;;;;20.13;10.41;;;;;;;-6.68;65.95;100508.45;356446;107;2216969;-72
2020/12/08 03:02:26;;;;;;;20.03;9.39;;;;;;;-6.67;65.99;100514.56;357026;111;1961898;-72
2020/12/08 03:03:32;;;;;;;20.82;9.16;;;;;;;-6.71;66.04;100513.87;333020;111;2532052;-73
2020/12/08 03:04:37;;;;;;;19.01;9.60;;;;;;;-6.71;66.07;100510.40;367597;107;1961975;-73
2020/12/08 03:05:44;;;;;;;20.09;9.60;;;;;;;-6.71;66.08;100518.28;361981;109;1961969;-73
2020/12/08 03:06:50;;;;;;;21.47;11.08;;;;;;;-6.70;66.14;100512.09;328925;109;1961858;-72
2020/12/08 03:07:56;;;;;;;20.24;9.53;;;;;;;-6.70;66.26;100514.71;364711;109;1964002;-72
2020/12/08 03:09:02;;;;;;;22.87;10.68;;;;;;;-6.71;66.24;100516.50;363720;109;1961983;-72
2020/12/08 03:10:08;;;;;;;25.68;11.42;;;;;;;-6.71;66.20;100519.13;351717;109;2283011;-72
2020/12/08 03:11:14;;;;;;;21.37;10.19;;;;;;;-6.69;66.24;100519.06;370721;107;1962272;-72
2020/12/08 03:12:21;;;;;;;20.69;10.17;;;;;;;-6.67;66.17;100515.44;323962;109;2935062;-72
2020/12/08 03:13:29;;;;;;;22.00;10.11;;;;;;;-6.68;66.23;100515.50;360726;109;1959701;-72
2020/12/08 03:14:35;;;;;;;21.98;12.19;;;;;;;-6.66;66.20;100519.75;328216;108;2123460;-72
2020/12/08 03:15:40;;;;;;;21.22;9.96;;;;;;;-6.65;66.26;100523.22;368098;108;1962961;-73
2020/12/08 03:16:47;;;;;;;20.47;10.32;;;;;;;-6.65;66.26;100515.34;341264;108;2572020;-73
2020/12/08 03:17:53;;;;;;;20.53;9.44;;;;;;;-6.67;66.21;100518.06;366857;109;1961970;-73
2020/12/08 03:19:01;;;;;;;19.54;10.07;;;;;;;-6.66;66.17;100522.38;353799;109;2865941;-72
2020/12/08 03:20:08;;;;;;;21.09;9.83;;;;;;;-6.71;66.44;100513.87;369809;107;1961945;-73
2020/12/08 03:21:15;;;;;;;24.71;12.14;;;;;;;-6.68;66.29;100518.97;331014;107;2185924;-73
2020/12/08 03:22:20;;;;;;;21.72;11.83;;;;;;;-6.66;66.28;100525.00;369609;108;1962034;-73
2020/12/08 03:23:28;;;;;;;21.06;10.29;;;;;;;-6.66;66.30;100519.75;325437;108;2873963;-73
2020/12/08 03:24:33;;;;;;;20.89;8.81;;;;;;;-6.62;66.26;100519.59;355949;109;1961884;-73
2020/12/08 03:25:38;;;;;;;22.31;10.27;;;;;;;-6.62;66.27;100515.19;369015;109;1962001;-74
2020/12/08 03:26:47;;;;;;;21.76;10.89;;;;;;;-6.61;66.19;100516.03;351172;107;1965204;-73
2020/12/08 03:27:52;;;;;;;23.96;9.38;;;;;;;-6.58;66.07;100516.75;369353;107;1961983;-74
2020/12/08 03:28:58;;;;;;;25.13;10.21;;;;;;;-6.57;66.04;100512.34;367988;108;1961991;-74
2020/12/08 03:30:05;;;;;;;20.90;10.39;;;;;;;-6.61;66.11;100510.77;337276;107;1992976;-73
2020/12/08 03:31:11;;;;;;;22.39;10.73;;;;;;;-6.60;66.06;100510.70;369464;109;1961994;-74
2020/12/08 03:32:16;;;;;;;23.00;10.58;;;;;;;-6.59;66.03;100515.02;350992;107;2386021;-74
2020/12/08 03:33:22;;;;;;;18.53;10.32;;;;;;;-6.69;66.11;100498.04;351734;109;1962010;-73
2020/12/08 03:34:28;;;;;;;22.19;10.98;;;;;;;-6.66;66.19;100513.65;369432;107;1962016;-73
2020/12/08 03:35:34;;;;;;;23.69;11.13;;;;;;;-6.67;66.31;100511.93;344351;107;2880955;-74
2020/12/08 03:36:41;;;;;;;19.26;10.66;;;;;;;-6.67;66.32;100501.42;370570;109;1961960;-74
2020/12/08 03:37:56;;;;;;;22.01;9.34;;;;;;;-6.67;66.36;100504.05;357604;112;1962085;-73
2020/12/08 03:39:02;;;;;;;19.92;9.63;;;;;;;-6.65;66.31;100500.42;319731;110;2827976;-73
2020/12/08 03:40:10;;;;;;;19.95;9.00;;;;;;;-6.63;66.25;100500.36;364188;110;1963965;-73
2020/12/08 03:41:21;;;;;;;18.71;9.89;;;;;;;-6.60;66.06;100505.45;345485;111;2228939;-72
2020/12/08 03:42:26;;;;;;;20.62;10.41;;;;;;;-6.64;66.07;100496.04;360522;111;1962990;-72
2020/12/08 03:43:32;;;;;;;19.53;9.28;;;;;;;-6.66;66.12;100503.98;359963;111;1961994;-73
2020/12/08 03:44:38;;;;;;;19.81;9.17;;;;;;;-6.67;66.31;100498.79;349660;111;2223943;-73
2020/12/08 03:45:46;;;;;;;19.52;9.78;;;;;;;-6.69;66.25;100498.89;353457;113;1961940;-73
2020/12/08 03:46:53;;;;;;;20.84;9.41;;;;;;;-6.69;66.37;100501.52;355106;111;1962108;-73
2020/12/08 03:47:59;;;;;;;19.06;8.73;;;;;;;-6.68;66.56;100502.36;360632;111;1961921;-73
2020/12/08 03:49:06;;;;;;;20.31;10.52;;;;;;;-6.73;66.85;100507.83;358138;112;1962969;-73
2020/12/08 03:50:14;;;;;;;19.11;9.58;;;;;;;-6.73;66.89;100505.20;361886;111;1962030;-73
2020/12/08 03:51:21;;;;;;;23.87;11.37;;;;;;;-6.73;66.95;100504.36;358443;111;1962028;-73
2020/12/08 03:52:27;;;;;;;19.64;9.78;;;;;;;-6.68;66.88;100504.98;338899;111;2471969;-73
2020/12/08 03:53:32;;;;;;;24.05;9.96;;;;;;;-6.70;66.86;100497.16;342826;111;1962020;-73
2020/12/08 03:54:38;;;;;;;20.12;8.95;;;;;;;-6.68;66.80;100502.36;351820;112;1962965;-73
2020/12/08 03:55:45;;;;;;;21.06;9.50;;;;;;;-6.65;66.75;100497.79;318653;115;2555828;-73
2020/12/08 03:56:52;;;;;;;19.74;9.32;;;;;;;-6.62;66.71;100504.67;343917;115;1961922;-73
2020/12/08 03:57:58;;;;;;;15.08;8.18;;;;;;;-6.58;66.52;100505.39;339723;106;2283014;-73
2020/12/08 03:59:04;;;;;;;20.33;8.79;;;;;;;-6.58;66.51;100500.14;332239;115;1961928;-73
2020/12/08 04:00:10;;;;;;;19.77;9.36;;;;;;;-6.57;66.44;100499.20;346292;114;1962944;-73
2020/12/08 04:01:22;;;;;;;19.81;9.63;;;;;;;-6.54;66.32;100499.03;349694;115;1962978;-73
2020/12/08 04:02:30;;;;;;;19.21;8.89;;;;;;;-6.58;66.40;100503.61;353630;113;1962944;-73
2020/12/08 04:03:38;;;;;;;18.22;9.40;;;;;;;-6.61;66.40;100498.51;353980;114;1962036;-73
2020/12/08 04:04:43;;;;;;;18.62;10.23;;;;;;;-6.64;66.79;100496.88;328261;115;2387965;-73
2020/12/08 04:05:49;;;;;;;19.78;10.62;;;;;;;-6.67;66.84;100497.04;342220;114;1961868;-73
2020/12/08 04:06:56;;;;;;;19.72;9.22;;;;;;;-6.65;66.80;100496.95;347594;115;1961933;-73
2020/12/08 04:08:01;;;;;;;20.59;9.54;;;;;;;-6.65;66.87;100496.95;341112;112;2200914;-73
2020/12/08 04:09:10;;;;;;;17.23;9.61;;;;;;;-6.65;66.89;100492.53;360609;112;1962099;-73
2020/12/08 04:10:15;;;;;;;17.41;10.18;;;;;;;-6.65;66.87;100489.06;321645;112;2106751;-72
2020/12/08 04:11:21;;;;;;;19.27;10.47;;;;;;;-6.66;66.95;100485.59;360097;112;1962954;-73
2020/12/08 04:12:27;;;;;;;17.53;9.19;;;;;;;-6.66;66.80;100485.59;354140;109;1962164;-73
2020/12/08 04:13:33;;;;;;;18.03;8.68;;;;;;;-6.66;66.81;100484.75;324695;113;2552034;-73
2020/12/08 04:14:49;;;;;;;18.84;10.12;;;;;;;-6.67;66.79;100491.78;349303;115;1963907;-73
2020/12/08 04:15:55;;;;;;;18.90;8.77;;;;;;;-6.69;66.88;100496.26;365135;109;1961893;-73
2020/12/08 04:17:02;;;;;;;19.14;9.08;;;;;;;-6.69;66.88;100496.26;365268;109;1962004;-73
2020/12/08 04:18:08;;;;;;;19.45;9.42;;;;;;;-6.70;67.07;100491.91;364172;109;1961952;-73
2020/12/08 04:19:16;;;;;;;16.60;8.43;;;;;;;-6.71;67.27;100487.59;347873;108;2312848;-72
2020/12/08 04:20:22;;;;;;;20.34;9.85;;;;;;;-6.68;67.18;100481.34;323099;113;2558972;-73
2020/12/08 04:21:30;;;;;;;17.59;9.65;;;;;;;-6.72;67.33;100485.91;345626;113;1963039;-73
2020/12/08 04:22:39;;;;;;;19.85;9.68;;;;;;;-6.73;67.44;100481.56;349045;113;1961965;-72
2020/12/08 04:23:45;;;;;;;16.96;9.41;;;;;;;-6.71;67.48;100484.13;345246;115;1965507;-73
2020/12/08 04:24:51;;;;;;;20.73;10.35;;;;;;;-6.69;67.45;100484.91;345826;113;1961942;-73
2020/12/08 04:25:57;;;;;;;20.76;9.77;;;;;;;-6.68;67.27;100487.44;349728;113;1961971;-72
2020/12/08 04:27:04;;;;;;;18.70;9.74;;;;;;;-6.66;67.26;100479.49;344058;115;1961965;-73
2020/12/08 04:28:12;;;;;;;24.30;11.42;;;;;;;-6.67;67.35;100478.65;302997;113;2905980;-73
2020/12/08 04:29:18;;;;;;;19.22;9.87;;;;;;;-6.65;67.34;100479.39;336667;118;1961979;-73
2020/12/08 04:30:25;;;;;;;19.48;10.50;;;;;;;-6.68;67.51;100479.55;323484;118;2328998;-73
2020/12/08 04:31:31;;;;;;;20.12;10.13;;;;;;;-6.67;67.38;100476.02;350809;113;1961989;-73
2020/12/08 04:32:38;;;;;;;18.98;9.84;;;;;;;-6.71;67.71;100476.24;350586;113;1964006;-73
2020/12/08 04:33:44;;;;;;;20.19;10.16;;;;;;;-6.73;67.69;100470.20;326018;113;2535030;-73
2020/12/08 04:34:49;;;;;;;22.02;9.84;;;;;;;-6.71;67.60;100466.58;349652;113;1961936;-72
2020/12/08 04:35:55;;;;;;;18.08;8.91;;;;;;;-6.70;67.71;100470.05;349550;113;1962027;-73
2020/12/08 04:37:01;;;;;;;16.90;8.63;;;;;;;-6.69;67.55;100477.87;313401;111;2183389;-74
2020/12/08 04:38:09;;;;;;;20.57;9.73;;;;;;;-6.68;67.52;100478.70;356745;111;1964009;-73
2020/12/08 04:39:14;;;;;;;21.04;10.36;;;;;;;-6.68;67.63;100479.55;340312;111;2394918;-74
2020/12/08 04:40:21;;;;;;;22.28;9.96;;;;;;;-6.71;67.90;100484.13;355893;111;1963901;-74
2020/12/08 04:41:28;;;;;;;23.39;10.55;;;;;;;-6.71;67.95;100484.97;359705;111;1961980;-73
2020/12/08 04:42:33;;;;;;;18.13;10.42;;;;;;;-6.69;67.99;100475.23;332529;112;1961783;-73
2020/12/08 04:43:41;;;;;;;20.63;10.51;;;;;;;-6.65;67.78;100478.55;353886;112;1961943;-73
2020/12/08 04:44:47;;;;;;;15.37;8.38;;;;;;;-6.64;67.75;100478.48;358940;111;1961938;-73
2020/12/08 04:45:54;;;;;;;19.43;9.51;;;;;;;-6.62;67.64;100481.02;360201;111;1962001;-73
2020/12/08 04:47:03;;;;;;;18.29;9.03;;;;;;;-6.63;67.57;100471.45;333692;111;1961933;-73
2020/12/08 04:48:10;;;;;;;19.51;10.78;;;;;;;-6.61;67.41;100480.12;328590;111;2217071;-73
2020/12/08 04:49:16;;;;;;;19.68;9.98;;;;;;;-6.62;67.43;100481.02;359656;111;1961996;-73
2020/12/08 04:50:22;;;;;;;19.88;9.96;;;;;;;-6.64;67.62;100480.27;341664;111;1961912;-73
2020/12/08 04:51:28;;;;;;;18.30;10.06;;;;;;;-6.67;67.63;100478.65;361173;111;1962029;-73
2020/12/08 04:52:34;;;;;;;21.82;10.92;;;;;;;-6.67;67.71;100481.27;359470;111;1961905;-73
2020/12/08 04:53:40;;;;;;;19.38;10.29;;;;;;;-6.65;67.70;100470.67;327581;111;2221033;-73
2020/12/08 04:54:46;;;;;;;19.44;9.11;;;;;;;-6.66;67.82;100477.71;359675;111;1961971;-73
2020/12/08 04:55:51;;;;;;;19.65;9.29;;;;;;;-6.62;67.78;100474.92;359577;111;1962017;-73
2020/12/08 04:56:57;;;;;;;25.96;10.73;;;;;;;-6.61;67.70;100473.98;328356;111;2202891;-73
2020/12/08 04:58:03;;;;;;;21.08;10.31;;;;;;;-6.64;67.90;100475.86;349775;114;1963967;-73
2020/12/08 04:59:08;;;;;;;18.03;8.55;;;;;;;-6.65;67.89;100479.39;351719;113;1962970;-73